Time;durP1;ratioP1;P1;durP2;ratioP2;P2;SDS_P1;SDS_P2;PMS_P1;PMS_P2;Temp;Humidity;BMP_temperature;BMP_pressure;BME280_temperature;BME280_humidity;BME280_pressure;Samples;Min_cycle;Max_cycle;Signal;HPM_P1;HPM_P2
2021/07/12 00:00:44;;;;;;;9.93;6.30;;;;;;;20.50;89.21;99987.28;5055004;28;20045;-76
2021/07/12 00:03:12;;;;;;;9.50;6.55;;;;;;;20.47;89.60;99979.47;5055497;28;20045;-76
2021/07/12 00:05:41;;;;;;;9.90;6.32;;;;;;;20.61;89.41;99977.16;5055179;28;20045;-75
2021/07/12 00:08:11;;;;;;;11.50;6.65;;;;;;;20.47;89.27;99981.34;5055246;28;20049;-77
2021/07/12 00:10:40;;;;;;;9.63;6.35;;;;;;;20.27;91.10;99986.97;5055152;28;20441;-77
2021/07/12 00:13:09;;;;;;;11.18;6.38;;;;;;;20.22;91.50;99993.88;5053919;28;20087;-77
2021/07/12 00:15:37;;;;;;;9.10;6.65;;;;;;;20.14;92.01;100001.94;5054630;28;20053;-79
2021/07/12 00:18:06;;;;;;;9.82;6.07;;;;;;;20.16;92.32;100005.31;5055231;28;20059;-79
2021/07/12 00:20:34;;;;;;;9.02;6.00;;;;;;;20.18;91.54;100014.16;5054869;28;20049;-79
2021/07/12 00:23:03;;;;;;;8.52;6.10;;;;;;;20.16;90.42;100014.28;5055258;28;20045;-79
2021/07/12 00:25:33;;;;;;;8.75;5.75;;;;;;;20.16;90.42;100014.28;5054464;28;20123;-78
2021/07/12 00:28:02;;;;;;;9.10;6.05;;;;;;;20.14;89.97;100013.63;5054814;28;20045;-78
2021/07/12 00:30:30;;;;;;;9.68;6.13;;;;;;;20.04;90.65;100012.03;5054498;28;20049;-78
2021/07/12 00:32:58;;;;;;;10.13;5.80;;;;;;;20.13;89.55;100002.94;5055140;28;20056;-78
2021/07/12 00:35:27;;;;;;;8.95;5.82;;;;;;;20.13;89.49;100005.66;5054806;28;20067;-78
2021/07/12 00:37:56;;;;;;;11.60;6.00;;;;;;;20.10;90.14;100000.56;5054745;28;20123;-78
2021/07/12 00:40:26;;;;;;;6.93;5.65;;;;;;;20.02;90.82;100007.63;5053170;28;20052;-78
2021/07/12 00:42:59;;;;;;;9.18;6.00;;;;;;;19.98;90.37;100000.00;5054535;28;20446;-78
2021/07/12 00:45:30;;;;;;;11.20;5.68;;;;;;;20.09;90.07;100004.28;5054382;28;20052;-78
2021/07/12 00:48:00;;;;;;;10.80;6.22;;;;;;;20.04;89.92;100012.88;5054643;28;20049;-78
2021/07/12 00:50:30;;;;;;;12.45;6.32;;;;;;;19.99;90.50;100010.66;5054364;28;20048;-78
2021/07/12 00:52:59;;;;;;;11.07;6.10;;;;;;;19.95;91.58;100017.38;5054328;28;20047;-78
2021/07/12 00:55:31;;;;;;;10.18;6.32;;;;;;;19.92;91.78;100020.41;5054439;28;20072;-78
2021/07/12 00:58:03;;;;;;;9.38;6.47;;;;;;;19.91;93.52;100018.72;5053853;28;20048;-77
2021/07/12 01:00:31;;;;;;;14.67;6.80;;;;;;;20.06;94.13;100035.22;5053996;28;20045;-77
2021/07/12 01:03:00;;;;;;;13.23;7.22;;;;;;;19.98;94.30;100041.44;5054182;28;20045;-79
2021/07/12 01:05:30;;;;;;;12.77;7.95;;;;;;;20.02;96.64;100037.41;5054196;28;20041;-80
2021/07/12 01:07:59;;;;;;;13.50;8.32;;;;;;;19.80;98.64;100037.06;5054136;28;20044;-78
2021/07/12 01:10:29;;;;;;;10.70;8.07;;;;;;;19.52;100.00;100020.03;5053896;28;20040;-78
2021/07/12 01:13:16;;;;;;;12.65;8.98;;;;;;;19.22;100.00;100029.38;5054077;28;20044;-77
2021/07/12 01:15:55;;;;;;;18.92;10.93;;;;;;;19.08;100.00;100026.19;5053807;28;20482;-75
2021/07/12 01:18:31;;;;;;;14.95;10.68;;;;;;;19.23;100.00;100028.38;5053850;28;20539;-75
2021/07/12 01:21:46;;;;;;;16.20;11.27;;;;;;;19.10;100.00;100018.75;5054097;28;20040;-75
2021/07/12 01:24:50;;;;;;;16.75;11.40;;;;;;;19.17;100.00;100024.41;5053669;28;20064;-75
2021/07/12 01:27:51;;;;;;;18.63;12.15;;;;;;;19.13;100.00;100033.84;5053508;28;20468;-74
2021/07/12 01:30:24;;;;;;;20.17;13.50;;;;;;;19.14;100.00;100031.00;5053620;28;20048;-74
2021/07/12 01:33:04;;;;;;;22.25;14.52;;;;;;;19.13;100.00;100045.50;5053277;28;20049;-75
2021/07/12 01:35:54;;;;;;;22.55;15.95;;;;;;;19.22;100.00;100045.59;5053447;28;20045;-75
2021/07/12 01:38:38;;;;;;;22.20;17.27;;;;;;;19.21;100.00;100057.44;5053688;28;20483;-75
2021/07/12 01:41:16;;;;;;;24.73;18.80;;;;;;;19.22;100.00;100059.97;5053463;28;20143;-76
2021/07/12 01:43:52;;;;;;;25.67;18.67;;;;;;;19.28;100.00;100053.09;5053011;28;20045;-75
2021/07/12 01:46:29;;;;;;;23.70;19.17;;;;;;;19.26;100.00;100041.59;5053787;28;20041;-75
2021/07/12 01:49:06;;;;;;;26.35;19.05;;;;;;;19.32;100.00;100038.28;5053159;28;20056;-75
2021/07/12 01:51:45;;;;;;;23.40;17.63;;;;;;;19.34;100.00;100047.94;5052852;28;20072;-75
2021/07/12 01:54:22;;;;;;;22.65;18.02;;;;;;;19.38;100.00;100049.31;5053364;28;20475;-75
2021/07/12 01:56:58;;;;;;;25.42;20.17;;;;;;;19.33;100.00;100062.47;5053042;28;20084;-75
2021/07/12 01:59:35;;;;;;;22.88;18.60;;;;;;;19.30;100.00;100061.91;5053094;28;20491;-75
2021/07/12 02:02:07;;;;;;;23.10;19.08;;;;;;;19.33;100.00;100067.88;5052227;28;20052;-75
2021/07/12 02:04:41;;;;;;;21.92;18.02;;;;;;;19.25;100.00;100069.63;5052988;28;20102;-74
2021/07/12 02:07:13;;;;;;;21.85;18.77;;;;;;;19.26;100.00;100076.72;5053005;28;20079;-74
2021/07/12 02:09:42;;;;;;;25.23;18.27;;;;;;;19.22;100.00;100083.47;5052284;28;20044;-74
2021/07/12 02:12:12;;;;;;;21.27;15.57;;;;;;;19.30;100.00;100084.41;5052856;28;20094;-73
2021/07/12 02:14:41;;;;;;;20.15;17.02;;;;;;;19.23;100.00;100088.72;5052501;28;20131;-72
2021/07/12 02:17:12;;;;;;;22.00;16.85;;;;;;;19.25;100.00;100088.56;5053019;28;20061;-74
2021/07/12 02:19:43;;;;;;;20.75;16.25;;;;;;;19.21;100.00;100079.91;5052637;28;20041;-74
2021/07/12 02:22:12;;;;;;;20.27;17.08;;;;;;;19.20;100.00;100083.59;5052886;28;20044;-74
2021/07/12 02:24:42;;;;;;;21.23;17.00;;;;;;;19.16;100.00;100080.34;5052419;28;20471;-75
2021/07/12 02:27:10;;;;;;;23.38;17.67;;;;;;;19.14;100.00;100078.81;5052573;28;20052;-74
2021/07/12 02:29:39;;;;;;;21.45;18.48;;;;;;;19.12;100.00;100086.22;5052568;28;20468;-75
2021/07/12 02:32:08;;;;;;;22.80;18.42;;;;;;;19.10;100.00;100082.78;5052557;28;20041;-74
2021/07/12 02:34:38;;;;;;;22.42;17.85;;;;;;;19.10;100.00;100089.06;5052408;28;20065;-75
2021/07/12 02:37:08;;;;;;;25.75;17.75;;;;;;;19.12;100.00;100078.97;5052662;28;20048;-74
2021/07/12 02:39:42;;;;;;;23.33;17.63;;;;;;;19.15;100.00;100081.34;5052590;28;20049;-74
2021/07/12 02:42:10;;;;;;;25.15;18.58;;;;;;;19.14;100.00;100084.22;5052627;28;20045;-74
2021/07/12 02:44:41;;;;;;;20.15;16.48;;;;;;;19.09;100.00;100089.22;5052502;28;20040;-75
2021/07/12 02:47:09;;;;;;;20.70;18.00;;;;;;;19.07;100.00;100081.25;5052613;28;20045;-79
2021/07/12 02:49:40;;;;;;;22.35;18.75;;;;;;;19.15;100.00;100080.50;5052373;28;20045;-80
2021/07/12 02:52:21;;;;;;;21.58;18.63;;;;;;;19.11;100.00;100081.81;5051173;28;20103;-81
2021/07/12 02:54:53;;;;;;;25.00;19.48;;;;;;;19.13;100.00;100087.91;5052357;28;20049;-81
2021/07/12 02:57:21;;;;;;;18.73;15.77;;;;;;;19.09;100.00;100090.06;5052639;28;20051;-75
2021/07/12 02:59:50;;;;;;;21.25;17.23;;;;;;;19.19;100.00;100090.00;5052381;28;20045;-75
2021/07/12 03:02:21;;;;;;;19.85;16.10;;;;;;;19.19;100.00;100092.69;5052557;28;20098;-75
2021/07/12 03:04:50;;;;;;;20.00;17.45;;;;;;;19.15;100.00;100085.91;5051948;28;20044;-75
2021/07/12 03:07:25;;;;;;;19.90;15.80;;;;;;;19.12;100.00;100089.78;5052131;28;20095;-75
2021/07/12 03:10:00;;;;;;;19.67;16.80;;;;;;;19.18;100.00;100091.00;5052190;28;20045;-75
2021/07/12 03:12:32;;;;;;;26.25;16.98;;;;;;;19.15;100.00;100085.91;5052498;28;20033;-75
2021/07/12 03:15:05;;;;;;;20.92;15.95;;;;;;;19.15;100.00;100078.66;5051001;28;20060;-74
2021/07/12 03:17:39;;;;;;;21.23;15.93;;;;;;;19.08;100.00;100082.94;5052359;28;20071;-74
2021/07/12 03:20:11;;;;;;;19.65;14.98;;;;;;;19.13;100.00;100071.69;5052615;28;20048;-74
2021/07/12 03:22:42;;;;;;;20.13;14.70;;;;;;;19.14;100.00;100068.00;5054706;28;20496;-76
2021/07/12 03:25:15;;;;;;;19.35;14.23;;;;;;;19.22;100.00;100064.53;5055842;28;20044;-75
2021/07/12 03:27:45;;;;;;;17.77;13.40;;;;;;;19.20;100.00;100059.25;5054533;28;20466;-75
2021/07/12 03:30:14;;;;;;;20.77;14.48;;;;;;;19.28;100.00;100053.09;5054643;28;20045;-78
2021/07/12 03:32:46;;;;;;;17.27;12.63;;;;;;;19.32;100.00;100051.81;5055420;28;20549;-79
2021/07/12 03:35:17;;;;;;;18.50;13.63;;;;;;;19.32;100.00;100043.69;5055983;28;20086;-77
2021/07/12 03:37:47;;;;;;;19.13;13.32;;;;;;;19.26;100.00;100038.88;5055544;28;20049;-76
2021/07/12 03:40:16;;;;;;;18.77;13.43;;;;;;;19.32;100.00;100041.84;5055724;28;20056;-75
2021/07/12 03:42:45;;;;;;;15.60;12.68;;;;;;;19.31;100.00;100036.59;5055546;28;20055;-75
2021/07/12 03:45:15;;;;;;;16.58;12.93;;;;;;;19.47;100.00;100041.28;5055557;28;20480;-76
2021/07/12 03:47:45;;;;;;;17.05;12.63;;;;;;;19.77;100.00;100027.38;5055236;28;20045;-76
2021/07/12 03:50:16;;;;;;;15.32;11.80;;;;;;;20.14;100.00;100027.16;5055620;28;20045;-73
2021/07/12 03:52:47;;;;;;;13.25;10.85;;;;;;;20.56;100.00;100032.69;5055057;28;20369;-77
2021/07/12 03:55:20;;;;;;;14.98;10.40;;;;;;;20.57;100.00;100030.84;5055593;28;20533;-76
2021/07/12 03:57:49;;;;;;;12.55;10.75;;;;;;;20.86;98.41;100025.88;5055273;28;20056;-76
2021/07/12 04:00:19;;;;;;;11.05;9.30;;;;;;;21.00;97.88;100027.09;5055668;28;20518;-76
2021/07/12 04:02:48;;;;;;;12.70;9.25;;;;;;;21.30;95.94;100024.81;5055108;28;20037;-76
2021/07/12 04:05:19;;;;;;;11.13;8.43;;;;;;;21.21;94.86;100018.50;5055121;28;20041;-76
2021/07/12 04:07:49;;;;;;;12.40;8.73;;;;;;;21.59;94.05;100017.06;5055012;28;20045;-77
2021/07/12 04:10:18;;;;;;;10.20;8.02;;;;;;;21.71;92.68;100026.59;5054910;28;20045;-78
2021/07/12 04:12:47;;;;;;;10.00;7.75;;;;;;;21.81;90.51;100014.69;5054684;28;20053;-78
2021/07/12 04:15:17;;;;;;;11.05;7.63;;;;;;;21.61;92.50;100011.47;5055100;28;20041;-78
2021/07/12 04:17:47;;;;;;;10.48;8.00;;;;;;;21.04;95.88;100000.53;5054184;28;20053;-78
2021/07/12 04:20:15;;;;;;;11.98;8.05;;;;;;;21.60;93.24;99996.19;5055129;28;20044;-78
2021/07/12 04:22:44;;;;;;;10.55;7.20;;;;;;;22.13;88.11;100008.44;5054716;28;20041;-77
2021/07/12 04:25:15;;;;;;;10.35;7.72;;;;;;;22.65;87.36;100003.34;5054925;28;20557;-78
2021/07/12 04:27:44;;;;;;;9.57;7.35;;;;;;;23.02;84.73;99996.41;5054599;28;20112;-77
2021/07/12 04:30:14;;;;;;;12.27;6.95;;;;;;;23.12;84.53;99986.13;5054639;28;20098;-78
2021/07/12 04:32:42;;;;;;;10.90;7.75;;;;;;;22.93;84.97;99990.16;5054441;28;20037;-79
2021/07/12 04:35:12;;;;;;;11.65;8.13;;;;;;;22.59;87.00;99990.47;5054729;28;20396;-76
2021/07/12 04:37:40;;;;;;;10.68;7.35;;;;;;;23.39;82.85;99996.50;5054813;28;20399;-74
2021/07/12 04:40:10;;;;;;;10.82;7.65;;;;;;;23.53;81.90;99991.28;5054271;28;20479;-74
2021/07/12 04:42:40;;;;;;;10.95;7.90;;;;;;;23.51;80.32;99993.34;5054392;28;20403;-74
2021/07/12 04:45:09;;;;;;;12.80;7.55;;;;;;;23.30;82.15;99992.13;5054212;28;20049;-74
2021/07/12 04:47:39;;;;;;;13.45;8.27;;;;;;;22.51;86.22;99995.94;5054255;28;20063;-76
2021/07/12 04:50:10;;;;;;;10.65;8.23;;;;;;;22.74;85.54;99996.84;5053976;28;20412;-73
2021/07/12 04:52:38;;;;;;;14.95;7.90;;;;;;;22.36;86.53;99992.22;5058047;28;20045;-76
2021/07/12 04:55:08;;;;;;;12.30;8.00;;;;;;;22.55;87.12;99994.53;5055128;28;20098;-73
2021/07/12 04:57:37;;;;;;;12.98;8.30;;;;;;;23.02;84.06;100004.56;5054122;28;20060;-73
2021/07/12 05:00:10;;;;;;;12.23;8.13;;;;;;;24.06;80.20;99986.78;5054098;28;20044;-70
2021/07/12 05:02:39;;;;;;;11.63;7.93;;;;;;;23.75;81.38;99990.47;5054121;28;20037;-70
2021/07/12 05:05:09;;;;;;;12.23;7.85;;;;;;;23.70;79.38;100003.78;5053573;28;20052;-69
2021/07/12 05:07:39;;;;;;;9.93;7.22;;;;;;;23.43;81.83;99997.81;5053697;28;20059;-69
2021/07/12 05:10:09;;;;;;;12.15;8.77;;;;;;;22.64;86.50;99996.22;5053756;28;20045;-72
2021/07/12 05:12:39;;;;;;;13.55;8.35;;;;;;;22.23;87.37;99982.75;5054194;28;20048;-72
2021/07/12 05:15:10;;;;;;;13.35;8.73;;;;;;;22.14;89.27;99978.38;5053607;28;20090;-72
2021/07/12 05:17:38;;;;;;;14.13;9.23;;;;;;;21.87;90.68;99985.00;5053649;28;20056;-72
2021/07/12 05:20:09;;;;;;;14.13;9.07;;;;;;;21.76;90.55;99979.06;5053358;28;20072;-72
2021/07/12 05:22:38;;;;;;;13.02;9.52;;;;;;;22.39;87.78;99983.72;5053782;28;20560;-72
2021/07/12 05:25:09;;;;;;;12.27;8.80;;;;;;;22.13;88.73;99981.25;5053572;28;20291;-77
2021/07/12 05:27:37;;;;;;;15.10;9.18;;;;;;;22.07;89.24;99979.22;5053966;28;20048;-76
2021/07/12 05:30:07;;;;;;;11.45;8.73;;;;;;;21.96;88.61;99983.13;5053391;28;20396;-75
2021/07/12 05:32:37;;;;;;;14.98;9.13;;;;;;;22.01;89.62;99975.31;5053476;28;20040;-76
2021/07/12 05:35:06;;;;;;;13.57;9.02;;;;;;;22.18;89.46;99976.13;5053374;28;20076;-75
2021/07/12 05:37:34;;;;;;;12.55;9.20;;;;;;;22.27;89.04;99984.09;5053939;28;20055;-75
2021/07/12 05:40:03;;;;;;;12.27;8.65;;;;;;;22.42;88.17;99981.53;5053675;28;20041;-75
2021/07/12 05:42:31;;;;;;;11.90;8.27;;;;;;;22.72;85.29;99982.59;5053672;28;20080;-75
2021/07/12 05:45:02;;;;;;;10.05;7.50;;;;;;;22.61;84.46;99982.13;5052486;28;20045;-77
2021/07/12 05:47:31;;;;;;;11.63;7.57;;;;;;;22.61;84.56;99987.56;5053362;28;20067;-76
2021/07/12 05:50:02;;;;;;;10.48;8.18;;;;;;;22.78;83.49;99981.88;5053258;28;20048;-75
2021/07/12 05:52:32;;;;;;;10.82;7.88;;;;;;;22.57;83.47;99976.19;5053514;28;20041;-74
2021/07/12 05:55:02;;;;;;;10.00;7.13;;;;;;;23.01;81.39;99970.22;5053115;28;20048;-73
2021/07/12 05:57:31;;;;;;;13.27;7.38;;;;;;;23.07;82.49;99981.25;5053138;28;20525;-73
2021/07/12 06:00:01;;;;;;;10.00;7.30;;;;;;;23.32;81.10;99973.75;5052398;28;20471;-73
2021/07/12 06:02:31;;;;;;;13.20;7.72;;;;;;;23.46;80.90;99974.84;5052770;28;20041;-76
2021/07/12 06:05:01;;;;;;;10.63;6.60;;;;;;;24.10;76.90;99960.84;5052915;28;20041;-69
2021/07/12 06:07:33;;;;;;;12.40;6.70;;;;;;;23.86;77.77;99965.50;5053085;28;20099;-69
2021/07/12 06:10:01;;;;;;;11.10;7.18;;;;;;;23.91;78.46;99965.78;5052924;28;20067;-70
2021/07/12 06:12:35;;;;;;;10.88;6.63;;;;;;;24.06;76.81;99975.88;5052769;28;20045;-69
2021/07/12 06:15:08;;;;;;;7.70;6.05;;;;;;;24.05;76.63;99974.19;5052769;28;20399;-70
2021/07/12 06:17:36;;;;;;;11.98;6.38;;;;;;;24.24;76.05;99979.94;5053008;28;20102;-69
2021/07/12 06:20:09;;;;;;;8.88;6.50;;;;;;;25.48;69.68;99969.09;5052558;28;20037;-73
2021/07/12 06:22:38;;;;;;;7.25;5.88;;;;;;;25.90;68.73;99976.44;5052808;28;20052;-72
2021/07/12 06:25:07;;;;;;;9.00;5.85;;;;;;;25.55;67.86;99984.50;5052414;28;20048;-70
2021/07/12 06:27:35;;;;;;;7.50;5.63;;;;;;;24.82;71.07;99982.84;5053077;28;20111;-68
2021/07/12 06:30:08;;;;;;;9.73;6.32;;;;;;;24.23;73.89;99978.25;5052488;28;20044;-69
2021/07/12 06:32:39;;;;;;;9.45;6.57;;;;;;;23.93;76.08;99971.91;5052917;28;20048;-68
2021/07/12 06:35:13;;;;;;;9.60;6.68;;;;;;;23.56;77.96;99969.16;5052511;28;20499;-69
2021/07/12 06:37:43;;;;;;;9.82;6.68;;;;;;;23.49;78.51;99984.53;5052811;28;20060;-69
2021/07/12 06:40:13;;;;;;;9.65;6.20;;;;;;;23.36;79.31;99977.81;5052536;28;20049;-69
2021/07/12 06:42:41;;;;;;;9.30;6.20;;;;;;;23.35;79.09;99984.25;5052692;28;20063;-68
2021/07/12 06:45:22;;;;;;;8.23;6.60;;;;;;;23.23;80.47;99983.00;5052429;28;20124;-69
2021/07/12 06:47:50;;;;;;;12.75;6.90;;;;;;;23.24;79.66;99994.72;5052583;28;20045;-69
2021/07/12 06:50:22;;;;;;;10.40;6.72;;;;;;;23.40;78.17;99998.19;5052706;28;20484;-70
2021/07/12 06:52:50;;;;;;;9.57;6.50;;;;;;;23.31;78.82;99999.28;5052720;28;20491;-70
2021/07/12 06:55:19;;;;;;;8.10;6.30;;;;;;;23.49;78.64;100000.84;5052725;28;20479;-69
2021/07/12 06:57:50;;;;;;;10.23;6.68;;;;;;;23.76;77.23;99994.88;5055752;28;20061;-69
2021/07/12 07:00:19;;;;;;;10.90;6.75;;;;;;;24.16;76.01;99987.34;5056412;28;20445;-72
2021/07/12 07:02:47;;;;;;;12.20;7.20;;;;;;;24.13;77.78;99999.47;5056613;28;20045;-69
2021/07/12 07:05:15;;;;;;;11.85;7.00;;;;;;;24.17;77.68;100005.38;5056283;28;20041;-69
2021/07/12 07:07:45;;;;;;;10.93;6.85;;;;;;;24.19;75.57;100004.16;5056614;28;20116;-68
2021/07/12 07:10:14;;;;;;;10.55;6.70;;;;;;;24.35;75.27;99997.72;5055872;28;20048;-69
2021/07/12 07:12:46;;;;;;;9.82;6.60;;;;;;;24.72;73.02;100009.56;5056089;28;20541;-70
2021/07/12 07:15:15;;;;;;;8.90;6.63;;;;;;;24.84;72.67;100002.59;5055924;28;20055;-70
2021/07/12 07:17:45;;;;;;;7.13;6.00;;;;;;;25.12;73.56;100000.03;5056408;28;20135;-69
2021/07/12 07:20:14;;;;;;;9.50;6.22;;;;;;;25.26;70.82;99999.13;5055941;28;20119;-69
2021/07/12 07:22:43;;;;;;;7.97;6.10;;;;;;;25.09;72.15;99998.53;5056153;28;20037;-69
2021/07/12 07:25:14;;;;;;;8.38;6.18;;;;;;;25.26;71.75;99995.53;5054651;28;20053;-69
2021/07/12 07:27:42;;;;;;;11.10;6.47;;;;;;;25.32;70.03;99998.34;5055794;28;20048;-69
2021/07/12 07:30:12;;;;;;;10.57;6.30;;;;;;;25.21;71.00;99992.56;5055544;28;20437;-70
2021/07/12 07:32:41;;;;;;;9.98;6.10;;;;;;;25.10;70.39;100002.94;5055777;28;20037;-69
2021/07/12 07:35:10;;;;;;;9.38;6.30;;;;;;;25.22;69.88;99999.72;5055625;28;20047;-69
2021/07/12 07:37:41;;;;;;;8.57;6.47;;;;;;;25.08;71.08;99993.25;5055732;28;20073;-70
2021/07/12 07:40:10;;;;;;;9.93;5.85;;;;;;;25.35;70.69;99991.66;5055536;28;20053;-70
2021/07/12 07:42:41;;;;;;;10.68;6.75;;;;;;;25.28;70.35;99999.75;5055606;28;20052;-69
2021/07/12 07:45:12;;;;;;;8.80;5.85;;;;;;;25.31;70.57;99998.56;5055581;28;20041;-69
2021/07/12 07:47:44;;;;;;;11.57;6.18;;;;;;;25.15;71.27;99987.88;5055619;28;20084;-70
2021/07/12 07:50:21;;;;;;;7.80;6.10;;;;;;;25.31;70.70;99999.41;5055313;28;20041;-69
2021/07/12 07:52:50;;;;;;;11.30;6.03;;;;;;;25.48;70.17;99994.53;5055484;28;20073;-69
2021/07/12 07:55:20;;;;;;;10.63;6.63;;;;;;;25.42;69.21;99989.84;5055440;28;20048;-69
2021/07/12 07:57:50;;;;;;;11.82;6.53;;;;;;;25.62;67.92;99995.50;5055356;28;20056;-69
2021/07/12 08:00:21;;;;;;;11.88;6.70;;;;;;;25.57;68.68;99993.34;5055201;28;20067;-69
2021/07/12 08:02:50;;;;;;;11.05;6.18;;;;;;;25.86;69.90;99986.91;5055302;28;20083;-69
2021/07/12 08:05:21;;;;;;;9.77;6.53;;;;;;;25.63;68.06;99989.84;5055179;28;20040;-70
2021/07/12 08:07:49;;;;;;;10.93;6.82;;;;;;;25.76;68.10;99985.56;5054414;28;20526;-69
2021/07/12 08:10:19;;;;;;;11.95;6.47;;;;;;;25.80;66.83;99986.88;5053880;28;20192;-69
2021/07/12 08:12:49;;;;;;;8.75;6.50;;;;;;;25.71;68.91;99985.31;5055803;28;20102;-69
2021/07/12 08:15:19;;;;;;;9.93;6.57;;;;;;;25.79;66.84;99977.81;5054947;28;20053;-70
2021/07/12 08:17:49;;;;;;;9.82;6.32;;;;;;;25.93;67.81;99982.34;5055143;28;20088;-69
2021/07/12 08:20:19;;;;;;;8.55;6.90;;;;;;;25.69;66.65;99991.78;5054947;28;20045;-69
2021/07/12 08:22:53;;;;;;;9.75;6.63;;;;;;;25.99;65.82;99985.34;5055080;28;20047;-69
2021/07/12 08:25:22;;;;;;;10.68;6.15;;;;;;;25.92;67.10;99977.94;5054708;28;20090;-69
2021/07/12 08:27:52;;;;;;;13.70;6.82;;;;;;;25.99;66.64;99986.19;5053671;28;20063;-69
2021/07/12 08:30:23;;;;;;;11.83;6.30;;;;;;;26.09;66.24;99988.56;5054765;28;20076;-69
2021/07/12 08:32:51;;;;;;;8.73;6.45;;;;;;;26.24;66.07;99994.75;5054888;28;20037;-69
2021/07/12 08:35:20;;;;;;;10.25;6.78;;;;;;;26.39;65.88;99989.22;5054762;28;20120;-70
2021/07/12 08:37:51;;;;;;;7.53;6.00;;;;;;;26.51;65.30;99984.88;5054531;28;20061;-69
2021/07/12 08:40:24;;;;;;;9.75;6.22;;;;;;;26.67;64.43;99979.06;5054516;28;20053;-69
2021/07/12 08:42:57;;;;;;;9.70;6.63;;;;;;;26.84;62.53;99984.19;5054605;28;20098;-69
2021/07/12 08:45:28;;;;;;;9.20;6.43;;;;;;;26.95;62.79;99986.34;5054939;28;20048;-69
2021/07/12 08:47:57;;;;;;;7.88;5.82;;;;;;;26.97;62.35;99978.75;5054434;28;20090;-69
2021/07/12 08:50:27;;;;;;;9.25;5.78;;;;;;;27.21;62.94;99985.59;5053000;28;20044;-70
2021/07/12 08:52:56;;;;;;;14.07;6.43;;;;;;;27.01;62.80;99985.50;5054336;28;20045;-70
2021/07/12 08:55:25;;;;;;;10.95;6.57;;;;;;;26.90;63.19;99988.84;5054376;28;20044;-70
2021/07/12 08:58:07;;;;;;;8.13;6.53;;;;;;;26.77;62.52;99985.00;5054477;28;20460;-70
2021/07/12 09:00:45;;;;;;;9.30;5.90;;;;;;;26.68;63.39;99988.97;5053033;28;20106;-69
2021/07/12 09:03:19;;;;;;;11.13;6.43;;;;;;;26.58;63.48;99991.22;5053917;28;20041;-70
2021/07/12 09:05:59;;;;;;;11.20;6.75;;;;;;;26.70;63.97;99988.75;5053194;28;20107;-70
2021/07/12 09:08:39;;;;;;;8.88;6.20;;;;;;;26.54;63.39;99987.22;5054149;28;20060;-69
2021/07/12 09:11:09;;;;;;;8.98;6.47;;;;;;;26.41;64.46;99987.13;5053922;28;20040;-70
2021/07/12 09:13:46;;;;;;;9.68;6.85;;;;;;;26.49;64.59;99990.53;5053945;28;20037;-70
2021/07/12 09:16:32;;;;;;;10.88;6.28;;;;;;;26.31;65.78;99984.72;5053650;28;20052;-70
2021/07/12 09:19:19;;;;;;;9.82;6.68;;;;;;;26.30;63.91;99976.72;5053658;28;20053;-69
2021/07/12 09:21:53;;;;;;;9.68;6.63;;;;;;;26.34;64.98;99978.00;5053878;28;20088;-70
2021/07/12 09:24:36;;;;;;;10.73;6.72;;;;;;;26.22;63.98;99978.56;5053808;28;20124;-69
2021/07/12 09:27:08;;;;;;;11.02;6.30;;;;;;;26.39;64.85;99978.28;5053492;28;20041;-70
2021/07/12 09:29:39;;;;;;;10.82;6.82;;;;;;;26.36;63.26;99968.56;5054115;28;20049;-70
2021/07/12 09:32:10;;;;;;;9.00;6.10;;;;;;;26.47;64.70;99970.75;5053461;28;20048;-70
2021/07/12 09:34:39;;;;;;;9.98;6.72;;;;;;;26.23;64.32;99965.72;5053693;28;20409;-69
2021/07/12 09:37:12;;;;;;;12.93;6.70;;;;;;;26.34;63.72;99962.44;5053437;28;20570;-69
2021/07/12 09:39:41;;;;;;;11.05;6.68;;;;;;;26.49;64.05;99970.56;5053790;28;20481;-69
2021/07/12 09:42:12;;;;;;;8.88;6.60;;;;;;;26.68;62.73;99969.81;5053245;28;20053;-70
2021/07/12 09:44:45;;;;;;;10.13;6.47;;;;;;;26.49;63.82;99965.94;5053674;28;20048;-69
2021/07/12 09:47:19;;;;;;;11.48;6.60;;;;;;;26.72;64.02;99968.34;5053192;28;20037;-69
2021/07/12 09:49:48;;;;;;;10.50;6.40;;;;;;;26.69;62.52;99966.03;5053333;28;20087;-69
2021/07/12 09:52:18;;;;;;;11.38;6.50;;;;;;;26.69;62.30;99960.56;5053109;28;20056;-69
2021/07/12 09:54:47;;;;;;;10.57;6.80;;;;;;;26.56;63.38;99965.97;5053297;28;20091;-69
2021/07/12 09:57:17;;;;;;;11.30;7.10;;;;;;;26.92;62.02;99964.84;5053062;28;20403;-70
2021/07/12 09:59:56;;;;;;;9.75;6.55;;;;;;;27.01;61.99;99964.44;5053199;28;20047;-70
2021/07/12 10:02:26;;;;;;;11.57;6.95;;;;;;;27.11;60.59;99958.63;5053150;28;20041;-69
2021/07/12 10:05:06;;;;;;;8.18;6.45;;;;;;;27.30;62.19;99957.81;5053297;28;20044;-69
2021/07/12 10:07:35;;;;;;;11.32;7.20;;;;;;;27.35;62.11;99960.78;5053058;28;20079;-70
2021/07/12 10:10:06;;;;;;;9.63;6.75;;;;;;;27.55;61.88;99962.69;5052848;28;20041;-70
2021/07/12 10:12:35;;;;;;;10.40;7.13;;;;;;;27.46;60.28;99963.97;5053301;28;20045;-70
2021/07/12 10:15:06;;;;;;;10.02;6.80;;;;;;;27.46;61.54;99962.06;5052782;28;20055;-70
2021/07/12 10:17:35;;;;;;;9.65;6.50;;;;;;;27.57;60.24;99961.44;5053058;28;20056;-70
2021/07/12 10:20:06;;;;;;;9.70;6.55;;;;;;;27.60;60.10;99958.28;5052856;28;20475;-70
2021/07/12 10:22:35;;;;;;;10.55;7.15;;;;;;;27.87;59.65;99948.19;5051798;28;20052;-70
2021/07/12 10:25:10;;;;;;;10.50;7.10;;;;;;;27.81;58.56;99951.78;5052832;28;20445;-70
2021/07/12 10:27:51;;;;;;;9.80;7.30;;;;;;;27.74;59.07;99941.88;5053068;28;20171;-70
2021/07/12 10:30:30;;;;;;;12.52;7.35;;;;;;;27.84;58.25;99942.28;5052701;28;20476;-70
2021/07/12 10:33:00;;;;;;;9.60;6.90;;;;;;;28.02;57.72;99939.75;5052570;28;20052;-70
2021/07/12 10:35:41;;;;;;;10.40;7.03;;;;;;;27.77;58.04;99931.31;5052826;28;20091;-70
2021/07/12 10:38:10;;;;;;;9.77;6.70;;;;;;;27.90;57.64;99933.25;5052702;28;20549;-70
2021/07/12 10:40:49;;;;;;;11.75;6.82;;;;;;;27.80;58.71;99925.44;5052789;28;20045;-70
2021/07/12 10:43:48;;;;;;;10.35;6.78;;;;;;;28.04;57.69;99925.81;5052356;28;20120;-70
2021/07/12 10:46:42;;;;;;;11.70;6.93;;;;;;;28.05;58.99;99920.13;5052766;28;20083;-70
2021/07/12 10:49:38;;;;;;;10.07;7.13;;;;;;;28.30;57.02;99924.97;5052430;28;20095;-70
2021/07/12 10:52:07;;;;;;;11.65;7.10;;;;;;;28.29;57.66;99910.41;5052694;28;20044;-69
2021/07/12 10:55:00;;;;;;;9.45;6.68;;;;;;;28.21;57.24;99914.19;5052656;28;20037;-69
2021/07/12 10:57:30;;;;;;;10.43;7.15;;;;;;;28.45;57.06;99907.16;5052366;28;20500;-70
2021/07/12 11:00:10;;;;;;;9.27;6.55;;;;;;;28.47;57.13;99906.94;5052550;28;20041;-69
2021/07/12 11:02:42;;;;;;;12.13;7.23;;;;;;;28.36;56.09;99905.72;5052825;28;20056;-70
2021/07/12 11:05:16;;;;;;;15.55;7.57;;;;;;;28.35;57.17;99901.31;5052416;28;20063;-70
2021/07/12 11:07:46;;;;;;;9.40;6.47;;;;;;;28.64;57.61;99899.06;5052463;28;20041;-70
2021/07/12 11:10:24;;;;;;;9.38;7.28;;;;;;;28.09;56.49;99896.72;5052190;28;20053;-69
2021/07/12 11:12:57;;;;;;;11.20;7.05;;;;;;;28.21;56.59;99905.13;5052664;28;20041;-69
2021/07/12 11:15:28;;;;;;;9.60;6.70;;;;;;;28.19;56.79;99897.13;5052305;28;20087;-69
2021/07/12 11:18:04;;;;;;;12.82;7.28;;;;;;;28.20;56.07;99893.31;5052315;28;20072;-69
2021/07/12 11:20:53;;;;;;;9.55;7.25;;;;;;;28.07;56.59;99892.50;5052146;28;20041;-70
2021/07/12 11:23:51;;;;;;;9.70;7.05;;;;;;;28.24;56.76;99889.06;5052381;28;20482;-69
2021/07/12 11:26:53;;;;;;;9.90;7.18;;;;;;;28.36;56.50;99885.69;5052417;28;20044;-68
2021/07/12 11:29:33;;;;;;;11.02;7.07;;;;;;;28.29;56.35;99879.41;5052181;28;20041;-69
2021/07/12 11:32:13;;;;;;;12.70;7.55;;;;;;;28.20;56.48;99887.00;5052103;28;20102;-69
2021/07/12 11:34:51;;;;;;;11.00;7.18;;;;;;;28.38;56.57;99878.94;5052356;28;20159;-69
2021/07/12 11:37:23;;;;;;;9.48;6.70;;;;;;;28.62;56.33;99871.03;5052068;28;20052;-69
2021/07/12 11:39:54;;;;;;;10.82;7.40;;;;;;;28.83;56.29;99867.94;5052270;28;20045;-69
2021/07/12 11:42:25;;;;;;;9.48;7.28;;;;;;;28.80;55.80;99871.13;5052112;28;20394;-69
2021/07/12 11:44:57;;;;;;;10.30;7.70;;;;;;;28.74;55.49;99867.34;5055309;28;20037;-69